Time;durP1;ratioP1;P1;durP2;ratioP2;P2;SDS_P1;SDS_P2;PMS_P1;PMS_P2;Temp;Humidity;BMP_temperature;BMP_pressure;BME280_temperature;BME280_humidity;BME280_pressure;Samples;Min_cycle;Max_cycle;Signal;HPM_P1;HPM_P2
2021/03/26 00:01:19;;;;;;;9.18;4.72;;;;;;;;;;5043779;28;20048;-81
2021/03/26 00:03:51;;;;;;;8.07;5.25;;;;;;;;;;5048134;28;20041;-80
2021/03/26 00:06:19;;;;;;;12.32;5.00;;;;;;;;;;5046867;28;20053;-80
2021/03/26 00:08:46;;;;;;;7.82;4.68;;;;;;;;;;5046609;28;20049;-81
2021/03/26 00:11:14;;;;;;;11.98;5.07;;;;;;;;;;5044021;28;20068;-84
2021/03/26 00:13:40;;;;;;;12.55;4.65;;;;;;;;;;5045516;28;20041;-81
2021/03/26 00:16:07;;;;;;;12.00;5.15;;;;;;;;;;5049232;28;20057;-82
2021/03/26 00:18:33;;;;;;;9.85;5.32;;;;;;;;;;5046443;28;20091;-81
2021/03/26 00:20:59;;;;;;;9.20;4.35;;;;;;;;;;5046499;28;20497;-81
2021/03/26 00:23:25;;;;;;;13.13;5.47;;;;;;;;;;5046103;28;20056;-81
2021/03/26 00:25:52;;;;;;;15.85;5.80;;;;;;;;;;5044771;28;20152;-81
2021/03/26 00:28:19;;;;;;;13.45;6.57;;;;;;;;;;5059423;28;20088;-81
2021/03/26 00:30:44;;;;;;;11.15;6.45;;;;;;;;;;5054423;28;20045;-81
2021/03/26 00:33:11;;;;;;;14.30;7.80;;;;;;;;;;5052710;28;20052;-82
2021/03/26 00:35:38;;;;;;;12.52;6.70;;;;;;;;;;5053348;28;20100;-81
2021/03/26 00:38:05;;;;;;;9.90;5.60;;;;;;;;;;5054671;28;20045;-80
2021/03/26 00:40:31;;;;;;;9.38;5.57;;;;;;;;;;5055715;28;20045;-82
2021/03/26 00:42:57;;;;;;;10.30;5.25;;;;;;;;;;5059955;28;20037;-81
2021/03/26 00:45:27;;;;;;;11.20;5.78;;;;;;;;;;5060424;28;20394;-82
2021/03/26 00:47:53;;;;;;;14.90;7.00;;;;;;;;;;5060675;28;20037;-81
2021/03/26 00:50:22;;;;;;;13.10;6.13;;;;;;;;;;5059756;28;20167;-82
2021/03/26 00:52:48;;;;;;;15.90;6.35;;;;;;;;;;5055652;28;20240;-81
2021/03/26 00:55:14;;;;;;;13.50;6.15;;;;;;;;;;5063327;28;20049;-85
2021/03/26 00:57:40;;;;;;;11.02;5.65;;;;;;;;;;5065141;28;20036;-82
2021/03/26 01:00:13;;;;;;;10.23;5.57;;;;;;;;;;5063138;28;20061;-82
2021/03/26 01:02:43;;;;;;;10.85;5.70;;;;;;;;;;5059550;28;20069;-82
2021/03/26 01:05:11;;;;;;;9.90;5.45;;;;;;;;;;5061695;28;20045;-84
2021/03/26 01:07:37;;;;;;;10.32;5.60;;;;;;;;;;5061087;28;20041;-80
2021/03/26 01:10:05;;;;;;;9.35;5.57;;;;;;;;;;5062571;28;20084;-82
2021/03/26 01:12:31;;;;;;;14.55;6.50;;;;;;;;;;5064147;28;20057;-82
2021/03/26 01:14:57;;;;;;;9.55;5.10;;;;;;;;;;5060599;28;20052;-83
2021/03/26 01:17:23;;;;;;;8.75;5.05;;;;;;;;;;5051428;28;20525;-80
2021/03/26 01:19:50;;;;;;;10.43;5.00;;;;;;;;;;5051522;28;20069;-80
2021/03/26 01:22:16;;;;;;;12.95;5.88;;;;;;;;;;5047188;28;20469;-80
2021/03/26 01:24:42;;;;;;;12.00;6.20;;;;;;;;;;5050426;28;20053;-79
2021/03/26 01:27:08;;;;;;;18.25;7.85;;;;;;;;;;5051362;28;20108;-84
2021/03/26 01:29:34;;;;;;;12.15;6.65;;;;;;;;;;5053863;28;20042;-81
2021/03/26 01:32:00;;;;;;;10.05;5.82;;;;;;;;;;5051310;28;20065;-78
2021/03/26 01:34:26;;;;;;;8.98;5.55;;;;;;;;;;5048156;28;20049;-79
2021/03/26 01:36:53;;;;;;;10.23;5.15;;;;;;;;;;5044349;28;20044;-80
2021/03/26 01:39:19;;;;;;;8.80;5.00;;;;;;;;;;5043209;28;20096;-80
2021/03/26 01:41:47;;;;;;;10.57;5.50;;;;;;;;;;5046945;28;20048;-80
2021/03/26 01:44:14;;;;;;;8.90;5.18;;;;;;;;;;5048508;28;20103;-79
2021/03/26 01:46:41;;;;;;;10.27;5.03;;;;;;;;;;5049612;28;20041;-80
2021/03/26 01:49:08;;;;;;;10.20;5.55;;;;;;;;;;5048445;28;20563;-80
2021/03/26 01:51:36;;;;;;;10.13;4.97;;;;;;;;;;5047434;28;20394;-81
2021/03/26 01:54:04;;;;;;;12.02;6.65;;;;;;;;;;5047209;28;20041;-81
2021/03/26 01:56:30;;;;;;;11.45;6.70;;;;;;;;;;5050367;28;20048;-82
2021/03/26 01:58:56;;;;;;;11.85;6.65;;;;;;;;;;5048356;28;20561;-80
2021/03/26 02:01:27;;;;;;;14.73;6.68;;;;;;;;;;5053349;28;20048;-79
2021/03/26 02:03:55;;;;;;;13.98;6.70;;;;;;;;;;5068114;23;20045;-86
2021/03/26 02:06:23;;;;;;;12.15;6.40;;;;;;;;;;5041181;28;20045;-87
2021/03/26 02:08:51;;;;;;;10.88;5.82;;;;;;;;;;5041191;28;20056;-85
2021/03/26 02:11:22;;;;;;;10.80;5.50;;;;;;;;;;5058458;28;20049;-85
2021/03/26 02:13:49;;;;;;;9.93;6.40;;;;;;;;;;5031425;28;20680;-85
2021/03/26 02:16:17;;;;;;;12.52;7.10;;;;;;;;;;5017611;28;20080;-86
2021/03/26 02:18:44;;;;;;;12.90;7.03;;;;;;;;;;5037878;28;20041;-86
2021/03/26 02:21:14;;;;;;;9.90;6.10;;;;;;;;;;5037205;28;20049;-86
2021/03/26 02:23:41;;;;;;;11.77;6.32;;;;;;;;;;5037062;28;20052;-87
2021/03/26 02:26:15;;;;;;;11.77;6.95;;;;;;;;;;5012962;28;20103;-87
2021/03/26 02:28:41;;;;;;;8.38;5.18;;;;;;;;;;5017910;28;20086;-87
2021/03/26 02:31:08;;;;;;;10.57;5.72;;;;;;;;;;5014720;28;20046;-86
2021/03/26 02:33:36;;;;;;;12.15;6.80;;;;;;;;;;5033273;28;20053;-86
2021/03/26 02:36:33;;;;;;;11.43;6.00;;;;;;;;;;5012630;28;20048;-88
2021/03/26 02:39:08;;;;;;;13.20;6.53;;;;;;;;;;5053175;28;20029;-87
2021/03/26 02:41:39;;;;;;;14.30;6.93;;;;;;;;;;5020769;28;20029;-84
2021/03/26 02:44:14;;;;;;;12.77;6.82;;;;;;;;;;5033749;28;20474;-86
2021/03/26 02:46:47;;;;;;;11.68;5.57;;;;;;;;;;5014958;28;20052;-86
2021/03/26 02:49:17;;;;;;;11.98;5.07;;;;;;;;;;5027981;28;20053;-86
2021/03/26 02:51:50;;;;;;;11.90;5.10;;;;;;;;;;5035501;28;20049;-85
2021/03/26 02:54:21;;;;;;;9.55;5.30;;;;;;;;;;5016052;28;20671;-86
2021/03/26 02:56:50;;;;;;;11.25;5.50;;;;;;;;;;5031824;28;20049;-85
2021/03/26 02:59:19;;;;;;;11.38;6.05;;;;;;;;;;5032949;28;20049;-85
2021/03/26 03:01:48;;;;;;;13.95;5.80;;;;;;;;;;5035748;28;20041;-86
2021/03/26 03:04:17;;;;;;;11.13;5.60;;;;;;;;;;5017539;28;20053;-86
2021/03/26 03:06:47;;;;;;;10.77;5.57;;;;;;;;;;5034078;28;20038;-86
2021/03/26 03:09:14;;;;;;;10.93;5.45;;;;;;;;;;5036257;28;20431;-85
2021/03/26 03:11:44;;;;;;;10.68;6.07;;;;;;;;;;5026449;28;20060;-86
2021/03/26 03:14:14;;;;;;;8.65;4.80;;;;;;;;;;5035518;28;20465;-86
2021/03/26 03:16:45;;;;;;;8.48;4.70;;;;;;;;;;5034433;28;20050;-85
2021/03/26 03:19:15;;;;;;;9.25;5.13;;;;;;;;;;5033046;28;20058;-86
2021/03/26 03:21:44;;;;;;;8.75;5.20;;;;;;;;;;5024146;28;20053;-88
2021/03/26 03:24:13;;;;;;;8.98;5.53;;;;;;;;;;5017127;28;20656;-87
2021/03/26 03:26:46;;;;;;;10.07;5.43;;;;;;;;;;5033841;28;20060;-87
2021/03/26 03:29:17;;;;;;;12.82;6.10;;;;;;;;;;5012806;28;20064;-88
2021/03/26 03:31:50;;;;;;;12.80;5.88;;;;;;;;;;4993007;28;20053;-87
2021/03/26 03:34:27;;;;;;;10.32;5.40;;;;;;;;;;5034209;28;20049;-86
2021/03/26 03:37:03;;;;;;;8.32;5.05;;;;;;;;;;4999690;28;20050;-88
2021/03/26 03:39:30;;;;;;;9.18;4.90;;;;;;;;;;5031939;28;20049;-89
2021/03/26 03:42:00;;;;;;;10.07;5.22;;;;;;;;;;5034304;28;20052;-87
2021/03/26 03:44:35;;;;;;;11.68;5.50;;;;;;;;;;5016784;28;20046;-88
2021/03/26 03:47:06;;;;;;;11.70;6.72;;;;;;;;;;5010838;28;20562;-87
2021/03/26 03:49:38;;;;;;;11.50;5.50;;;;;;;;;;5034703;28;20592;-87
2021/03/26 03:52:08;;;;;;;11.07;6.07;;;;;;;;;;5019312;28;20052;-87
2021/03/26 03:54:37;;;;;;;12.50;6.78;;;;;;;;;;5010315;28;20077;-86
2021/03/26 03:57:07;;;;;;;11.13;6.32;;;;;;;;;;5033856;28;20113;-87
2021/03/26 03:59:37;;;;;;;15.27;7.55;;;;;;;;;;5032618;28;20045;-88
2021/03/26 04:02:06;;;;;;;14.20;7.38;;;;;;;;;;5015261;28;20068;-88
2021/03/26 04:04:37;;;;;;;21.15;6.15;;;;;;;;;;5038276;28;20045;-87
2021/03/26 04:07:07;;;;;;;9.15;6.05;;;;;;;;;;5019920;28;20454;-88
2021/03/26 04:09:39;;;;;;;11.93;6.53;;;;;;;;;;5036187;28;20048;-88
2021/03/26 04:12:11;;;;;;;11.82;6.75;;;;;;;;;;5041606;28;20501;-88
2021/03/26 04:14:41;;;;;;;15.02;6.90;;;;;;;;;;5040107;28;20406;-86
2021/03/26 04:17:13;;;;;;;9.95;5.82;;;;;;;;;;5039279;28;20112;-86
2021/03/26 04:19:44;;;;;;;11.38;6.30;;;;;;;;;;5040697;28;20046;-87
2021/03/26 04:22:12;;;;;;;16.50;7.35;;;;;;;;;;5036500;28;20052;-86
2021/03/26 04:24:42;;;;;;;14.05;6.70;;;;;;;;;;5038285;28;20049;-86
2021/03/26 04:27:14;;;;;;;14.30;6.60;;;;;;;;;;5020907;28;20045;-86
2021/03/26 04:29:44;;;;;;;12.07;5.88;;;;;;;;;;5033214;28;20485;-86
2021/03/26 04:32:13;;;;;;;10.45;5.70;;;;;;;;;;5019346;28;20104;-87
2021/03/26 04:34:39;;;;;;;14.05;6.28;;;;;;;;;;5037749;28;20700;-86
2021/03/26 04:37:08;;;;;;;13.35;7.65;;;;;;;;;;5037557;28;20056;-86
2021/03/26 04:39:38;;;;;;;12.55;5.80;;;;;;;;;;5036113;28;20053;-88
2021/03/26 04:42:09;;;;;;;10.40;6.10;;;;;;;;;;5019969;28;20056;-87
2021/03/26 04:44:42;;;;;;;13.05;6.38;;;;;;;;;;5035557;28;20152;-86
2021/03/26 04:47:13;;;;;;;11.07;6.07;;;;;;;;;;5034467;28;20056;-89
2021/03/26 04:49:42;;;;;;;12.80;6.07;;;;;;;;;;5036246;28;20060;-86
2021/03/26 04:52:12;;;;;;;10.63;5.47;;;;;;;;;;4999097;28;20689;-87
2021/03/26 04:54:42;;;;;;;15.75;6.82;;;;;;;;;;5019415;28;20486;-86
2021/03/26 04:57:13;;;;;;;10.73;6.00;;;;;;;;;;5016816;28;20057;-87
2021/03/26 04:59:42;;;;;;;10.75;6.13;;;;;;;;;;5036603;28;20046;-86
2021/03/26 05:02:11;;;;;;;13.45;6.32;;;;;;;;;;5036143;28;20057;-88
2021/03/26 05:04:40;;;;;;;11.00;6.43;;;;;;;;;;5035592;28;20406;-87
2021/03/26 05:07:09;;;;;;;9.43;5.90;;;;;;;;;;5033097;28;20073;-86
2021/03/26 05:09:38;;;;;;;11.35;6.55;;;;;;;;;;5017086;28;20060;-88
2021/03/26 05:12:07;;;;;;;11.35;6.63;;;;;;;;;;5035456;28;20049;-87
2021/03/26 05:14:36;;;;;;;13.13;6.68;;;;;;;;;;5034035;28;20056;-87
2021/03/26 05:17:08;;;;;;;14.43;7.95;;;;;;;;;;5018456;28;20049;-87
2021/03/26 05:19:45;;;;;;;11.20;6.72;;;;;;;;;;5036082;28;20461;-86
2021/03/26 05:22:22;;;;;;;11.68;6.63;;;;;;;;;;5030791;28;20049;-88
2021/03/26 05:24:51;;;;;;;13.20;7.05;;;;;;;;;;4999915;28;20050;-87
2021/03/26 05:27:18;;;;;;;16.23;9.23;;;;;;;;;;5015880;28;20046;-87
2021/03/26 05:29:45;;;;;;;13.90;7.65;;;;;;;;;;5019127;28;20041;-86
2021/03/26 05:32:14;;;;;;;15.02;7.13;;;;;;;;;;5003216;28;20081;-86
2021/03/26 05:34:45;;;;;;;13.48;7.30;;;;;;;;;;5036793;28;20057;-87
2021/03/26 05:37:16;;;;;;;14.10;7.80;;;;;;;;;;5035748;28;20053;-86
2021/03/26 05:39:43;;;;;;;19.83;9.52;;;;;;;;;;5017788;28;20056;-88
2021/03/26 05:42:22;;;;;;;18.90;8.82;;;;;;;;;;4995236;28;20070;-86
2021/03/26 05:44:56;;;;;;;18.98;11.20;;;;;;;;;;5033769;28;20544;-86
2021/03/26 05:47:44;;;;;;;16.88;8.32;;;;;;;;;;5036332;28;20462;-88
2021/03/26 05:50:29;;;;;;;15.63;7.57;;;;;;;;;;5034697;28;20111;-87
2021/03/26 05:53:13;;;;;;;17.55;8.07;;;;;;;;;;5015915;28;20053;-88
2021/03/26 06:13:48;;;;;;;13.27;7.43;;;;;;;;;;4947554;28;20062;-89
2021/03/26 06:41:32;;;;;;;12.32;7.78;;;;;;;;;;4996767;28;20042;-80
2021/03/26 06:44:29;;;;;;;12.03;7.13;;;;;;;;;;4998267;28;20101;-79
2021/03/26 06:46:59;;;;;;;17.75;7.88;;;;;;;;;;4997323;28;20309;-79
2021/03/26 06:49:35;;;;;;;13.40;7.35;;;;;;;;;;5014072;28;20560;-79
2021/03/26 06:52:13;;;;;;;18.58;9.23;;;;;;;;;;5016732;28;20049;-80
2021/03/26 06:55:07;;;;;;;15.73;7.65;;;;;;;;;;5016601;28;20049;-82
2021/03/26 06:57:45;;;;;;;18.90;8.65;;;;;;;;;;5018609;28;20050;-81
2021/03/26 07:00:22;;;;;;;14.30;7.95;;;;;;;;;;4999961;28;20057;-82
2021/03/26 07:03:08;;;;;;;;;;;;;;;;;;5018708;28;20050;-80
2021/03/26 07:05:57;;;;;;;17.65;8.38;;;;;;;;;;4984363;28;19921;-80
2021/03/26 07:08:35;;;;;;;19.20;9.07;;;;;;;;;;5015009;28;20069;-80
2021/03/26 07:11:22;;;;;;;19.50;8.48;;;;;;;;;;5013693;28;20050;-82
2021/03/26 07:14:00;;;;;;;15.68;9.30;;;;;;;;;;4999929;28;20069;-81
2021/03/26 07:16:57;;;;;;;17.77;9.60;;;;;;;;;;5003671;28;20402;-80
2021/03/26 07:19:32;;;;;;;13.43;9.05;;;;;;;;;;4975998;28;20051;-79
2021/03/26 07:22:14;;;;;;;25.75;11.00;;;;;;;;;;4993361;28;20053;-79
2021/03/26 07:24:58;;;;;;;17.65;9.57;;;;;;;;;;4995948;28;20054;-81
2021/03/26 07:27:32;;;;;;;19.17;10.35;;;;;;;;;;4997055;28;20054;-85
2021/03/26 07:30:25;;;;;;;19.55;10.40;;;;;;;;;;5011227;28;20050;-80
2021/03/26 07:33:01;;;;;;;15.88;9.27;;;;;;;;;;4999915;28;20057;-81
2021/03/26 07:35:46;;;;;;;18.92;9.95;;;;;;;;;;5015661;28;20529;-80
2021/03/26 07:38:29;;;;;;;17.42;10.32;;;;;;;;;;5005234;28;20054;-82
2021/03/26 07:41:03;;;;;;;17.75;10.02;;;;;;;;;;4992765;28;20470;-80
2021/03/26 07:43:49;;;;;;;16.15;10.93;;;;;;;;;;4992905;28;20050;-84
2021/03/26 07:46:37;;;;;;;17.50;9.93;;;;;;;;;;4996083;28;20046;-81
2021/03/26 07:49:12;;;;;;;17.95;9.15;;;;;;;;;;4996444;28;20077;-84
2021/03/26 07:51:41;;;;;;;17.98;10.75;;;;;;;;;;4998961;28;20054;-85
2021/03/26 07:54:33;;;;;;;18.27;9.77;;;;;;;;;;4996555;28;20046;-81
2021/03/26 07:57:26;;;;;;;19.70;9.88;;;;;;;;;;4999793;28;20050;-80
2021/03/26 08:00:15;;;;;;;19.98;9.32;;;;;;;;;;4996110;28;20050;-81
2021/03/26 08:02:56;;;;;;;17.13;9.52;;;;;;;;;;4983044;28;20078;-80
2021/03/26 08:05:25;;;;;;;15.65;9.35;;;;;;;;;;4996161;28;20057;-80
2021/03/26 08:08:15;;;;;;;14.82;10.35;;;;;;;;;;4996585;28;20050;-81
2021/03/26 08:10:50;;;;;;;12.90;8.85;;;;;;;;;;4983730;28;20050;-81
2021/03/26 08:13:45;;;;;;;13.50;9.35;;;;;;;;;;4996692;28;20050;-80
2021/03/26 08:16:22;;;;;;;15.57;9.10;;;;;;;;;;4995708;28;20054;-79
2021/03/26 08:18:57;;;;;;;15.65;9.95;;;;;;;;;;5010190;28;20050;-82
2021/03/26 08:21:27;;;;;;;23.10;10.27;;;;;;;;;;5012164;28;20057;-83
2021/03/26 08:24:24;;;;;;;17.42;9.10;;;;;;;;;;4995364;28;20422;-81
2021/03/26 08:26:52;;;;;;;18.10;9.10;;;;;;;;;;4989152;28;20105;-81
2021/03/26 08:29:28;;;;;;;14.68;9.20;;;;;;;;;;5001727;28;20050;-81
2021/03/26 08:32:29;;;;;;;15.30;8.20;;;;;;;;;;5001849;28;20078;-82
2021/03/26 08:35:20;;;;;;;13.65;8.93;;;;;;;;;;5000525;28;20050;-82
2021/03/26 08:37:53;;;;;;;15.13;9.57;;;;;;;;;;4998070;28;20042;-82
2021/03/26 08:40:22;;;;;;;18.33;9.73;;;;;;;;;;4997173;28;20054;-82
2021/03/26 08:42:50;;;;;;;13.40;8.93;;;;;;;;;;4997070;28;20051;-82
2021/03/26 08:45:24;;;;;;;15.77;9.40;;;;;;;;;;4997253;28;20050;-81
2021/03/26 08:47:56;;;;;;;16.73;9.75;;;;;;;;;;4999288;28;20375;-81
2021/03/26 08:50:35;;;;;;;17.75;10.45;;;;;;;;;;4998710;28;20057;-82
2021/03/26 08:53:10;;;;;;;13.55;9.48;;;;;;;;;;4999336;28;20065;-81
2021/03/26 08:55:43;;;;;;;16.02;9.57;;;;;;;;;;4995319;28;20042;-79
2021/03/26 08:58:33;;;;;;;14.25;9.50;;;;;;;;;;4986910;28;20553;-80
2021/03/26 09:01:37;;;;;;;16.10;10.10;;;;;;;;;;4982073;28;20046;-81
2021/03/26 09:04:22;;;;;;;18.05;11.27;;;;;;;;;;4989462;28;20046;-81
2021/03/26 09:06:54;;;;;;;18.50;10.30;;;;;;;;;;4999338;28;20505;-80
2021/03/26 09:09:26;;;;;;;15.52;10.38;;;;;;;;;;4999670;28;20058;-81
2021/03/26 09:12:04;;;;;;;17.98;10.90;;;;;;;;;;4997884;28;20046;-81
2021/03/26 09:14:58;;;;;;;14.93;10.57;;;;;;;;;;4999027;28;20062;-83
2021/03/26 09:17:27;;;;;;;18.08;11.45;;;;;;;;;;5000750;28;20454;-83
2021/03/26 09:19:56;;;;;;;17.92;11.73;;;;;;;;;;5000409;28;20050;-83
2021/03/26 09:22:40;;;;;;;16.77;11.32;;;;;;;;;;5006377;28;20046;-82
2021/03/26 09:25:26;;;;;;;16.90;10.77;;;;;;;;;;5006888;28;20074;-80
2021/03/26 09:27:55;;;;;;;20.65;12.10;;;;;;;;;;5027507;28;20049;-82
2021/03/26 09:30:23;;;;;;;17.50;10.98;;;;;;;;;;5018671;28;20054;-81
2021/03/26 09:32:52;;;;;;;17.60;10.88;;;;;;;;;;4998107;28;20714;-81
2021/03/26 09:35:22;;;;;;;14.70;10.27;;;;;;;;;;4997226;28;20058;-81
2021/03/26 09:37:53;;;;;;;19.08;10.77;;;;;;;;;;4998962;28;20060;-81
2021/03/26 09:40:33;;;;;;;15.55;12.00;;;;;;;;;;5016127;28;20050;-81
2021/03/26 09:43:12;;;;;;;15.40;11.02;;;;;;;;;;5017165;28;20045;-80
2021/03/26 09:45:42;;;;;;;15.32;11.00;;;;;;;;;;5007378;28;20050;-82
2021/03/26 09:48:47;;;;;;;19.45;11.63;;;;;;;;;;4998200;28;20054;-82
2021/03/26 09:51:24;;;;;;;17.08;11.95;;;;;;;;;;4970197;28;20050;-83
2021/03/26 09:53:53;;;;;;;15.93;10.82;;;;;;;;;;4997459;28;20042;-81
2021/03/26 09:56:30;;;;;;;16.25;11.63;;;;;;;;;;4997160;28;20072;-81
2021/03/26 09:58:59;;;;;;;16.17;10.88;;;;;;;;;;4997338;28;20043;-81
2021/03/26 10:01:33;;;;;;;16.58;10.63;;;;;;;;;;4997569;28;20081;-81
2021/03/26 10:04:01;;;;;;;18.35;11.65;;;;;;;;;;4997186;28;20058;-81
2021/03/26 10:06:39;;;;;;;16.48;11.23;;;;;;;;;;4997475;28;20052;-82
2021/03/26 10:09:21;;;;;;;15.10;10.55;;;;;;;;;;5004676;28;20129;-82
2021/03/26 10:11:56;;;;;;;18.10;11.45;;;;;;;;;;5016909;28;20046;-81
2021/03/26 10:14:24;;;;;;;20.33;11.95;;;;;;;;;;5018347;28;20046;-81
2021/03/26 10:16:53;;;;;;;16.58;12.07;;;;;;;;;;5007837;28;20406;-82
2021/03/26 10:19:24;;;;;;;19.40;11.93;;;;;;;;;;4998354;28;20082;-82
2021/03/26 10:21:54;;;;;;;20.13;12.70;;;;;;;;;;4998064;28;20046;-83
2021/03/26 10:24:25;;;;;;;19.92;12.20;;;;;;;;;;4998596;28;20047;-84
2021/03/26 10:26:53;;;;;;;17.67;10.68;;;;;;;;;;4989034;28;20094;-82
2021/03/26 10:29:42;;;;;;;17.42;11.38;;;;;;;;;;4993324;28;20123;-83
2021/03/26 10:32:14;;;;;;;15.10;10.68;;;;;;;;;;4989414;28;20050;-83
2021/03/26 10:34:42;;;;;;;15.27;10.60;;;;;;;;;;4997689;28;20050;-83
2021/03/26 10:37:22;;;;;;;16.70;10.90;;;;;;;;;;4995707;28;20065;-80
2021/03/26 10:39:53;;;;;;;16.40;10.00;;;;;;;;;;4995228;28;20248;-79
2021/03/26 10:42:31;;;;;;;16.45;10.18;;;;;;;;;;4996497;28;20057;-80
2021/03/26 10:45:15;;;;;;;15.23;9.60;;;;;;;;;;4997162;28;20050;-79
2021/03/26 10:47:45;;;;;;;14.18;10.10;;;;;;;;;;4985545;28;20045;-79
2021/03/26 10:50:23;;;;;;;16.23;9.75;;;;;;;;;;4995692;28;20049;-79
2021/03/26 10:52:52;;;;;;;14.57;10.05;;;;;;;;;;4995469;28;20066;-79
2021/03/26 10:55:23;;;;;;;15.32;9.65;;;;;;;;;;4996009;28;20046;-79
2021/03/26 10:57:55;;;;;;;13.73;10.18;;;;;;;;;;4995102;28;20061;-79
2021/03/26 11:00:23;;;;;;;15.05;9.52;;;;;;;;;;4995875;28;20042;-82
2021/03/26 11:02:58;;;;;;;15.80;9.65;;;;;;;;;;4996579;28;20050;-82
2021/03/26 11:05:44;;;;;;;10.07;8.52;;;;;;;;;;4996649;28;20547;-81
2021/03/26 11:08:35;;;;;;;16.17;10.57;;;;;;;;;;4995178;28;20466;-82
2021/03/26 11:11:06;;;;;;;11.88;8.85;;;;;;;;;;4996904;28;20451;-82
2021/03/26 11:13:38;;;;;;;11.40;8.25;;;;;;;;;;4996557;28;20046;-81
2021/03/26 11:16:07;;;;;;;14.48;9.27;;;;;;;;;;4996517;28;20054;-82
2021/03/26 11:18:37;;;;;;;13.20;7.82;;;;;;;;;;4995378;28;20446;-81
2021/03/26 11:21:06;;;;;;;14.85;8.55;;;;;;;;;;4996933;28;20415;-82
2021/03/26 11:23:37;;;;;;;13.52;9.38;;;;;;;;;;4996654;28;20430;-84
2021/03/26 11:26:11;;;;;;;22.88;9.13;;;;;;;;;;4996151;28;20046;-83
2021/03/26 11:28:39;;;;;;;14.38;8.45;;;;;;;;;;4998049;28;20371;-81
2021/03/26 11:31:29;;;;;;;12.10;8.27;;;;;;;;;;5012014;28;20050;-82
2021/03/26 11:34:01;;;;;;;12.88;8.02;;;;;;;;;;4976841;28;20047;-84
2021/03/26 11:36:34;;;;;;;28.63;9.07;;;;;;;;;;4976577;28;20054;-82
2021/03/26 11:39:03;;;;;;;15.48;7.63;;;;;;;;;;4992637;28;20077;-82
2021/03/26 11:41:35;;;;;;;13.10;8.27;;;;;;;;;;4996220;28;20066;-83
2021/03/26 11:44:02;;;;;;;13.75;7.80;;;;;;;;;;4995992;28;20077;-81
2021/03/26 11:46:37;;;;;;;12.48;7.40;;;;;;;;;;4996097;28;20058;-82
2021/03/26 11:49:13;;;;;;;11.75;7.88;;;;;;;;;;4995451;28;20046;-82
2021/03/26 11:51:42;;;;;;;14.15;8.27;;;;;;;;;;4995683;28;20062;-82
2021/03/26 11:54:11;;;;;;;11.63;6.78;;;;;;;;;;4995871;28;20046;-82
2021/03/26 11:56:46;;;;;;;10.27;6.65;;;;;;;;;;4995483;28;20054;-82
2021/03/26 11:59:45;;;;;;;9.27;6.88;;;;;;;;;;4995538;28;20410;-82
2021/03/26 12:02:52;;;;;;;10.82;6.97;;;;;;;;;;4976144;28;20527;-82
2021/03/26 12:05:30;;;;;;;10.38;7.47;;;;;;;;;;4975808;28;20126;-81
2021/03/26 12:08:02;;;;;;;12.05;6.43;;;;;;;;;;4989420;28;20038;-80
2021/03/26 12:10:32;;;;;;;9.55;6.22;;;;;;;;;;5014850;28;20054;-82
2021/03/26 12:13:06;;;;;;;9.02;6.15;;;;;;;;;;5013407;28;20045;-79
2021/03/26 12:15:36;;;;;;;8.40;5.70;;;;;;;;;;5013455;28;20042;-79
2021/03/26 12:18:05;;;;;;;8.93;5.90;;;;;;;;;;5004450;28;20054;-78
2021/03/26 12:20:33;;;;;;;7.85;5.88;;;;;;;;;;4994305;28;20058;-78
2021/03/26 12:23:17;;;;;;;10.55;5.75;;;;;;;;;;4998025;28;20054;-78
2021/03/26 12:25:47;;;;;;;7.82;5.07;;;;;;;;;;4989237;28;20050;-79
2021/03/26 12:28:22;;;;;;;11.38;5.57;;;;;;;;;;4983676;28;20043;-79
2021/03/26 12:30:51;;;;;;;8.18;5.18;;;;;;;;;;4996794;28;20042;-78
2021/03/26 12:33:23;;;;;;;17.55;5.90;;;;;;;;;;4998970;28;20050;-79
2021/03/26 12:35:52;;;;;;;6.97;4.47;;;;;;;;;;4992814;28;20095;-79
2021/03/26 12:38:26;;;;;;;8.27;4.25;;;;;;;;;;4981888;28;20043;-80
2021/03/26 12:41:13;;;;;;;7.70;4.15;;;;;;;;;;4979135;28;20050;-84
2021/03/26 12:43:53;;;;;;;7.35;4.15;;;;;;;;;;4980643;28;20119;-81
2021/03/26 12:46:43;;;;;;;6.95;4.28;;;;;;;;;;4980579;28;20058;-82
2021/03/26 12:49:17;;;;;;;10.70;4.68;;;;;;;;;;5003099;28;20050;-84
2021/03/26 12:51:47;;;;;;;9.02;4.43;;;;;;;;;;4987165;28;20050;-81
2021/03/26 12:54:20;;;;;;;7.43;4.38;;;;;;;;;;4999931;28;20054;-79
2021/03/26 12:56:58;;;;;;;9.13;4.40;;;;;;;;;;4998392;28;20050;-80
2021/03/26 13:02:49;;;;;;;7.72;4.13;;;;;;;;;;4998362;28;20081;-81
2021/03/26 13:05:27;;;;;;;7.93;4.63;;;;;;;;;;4979695;28;20053;-81
2021/03/26 13:08:09;;;;;;;6.25;4.20;;;;;;;;;;4988263;28;20121;-79
2021/03/26 13:10:43;;;;;;;7.22;4.15;;;;;;;;;;5005628;28;20053;-81
2021/03/26 13:13:30;;;;;;;7.88;4.32;;;;;;;;;;5007043;28;20118;-81
2021/03/26 13:16:24;;;;;;;7.25;4.38;;;;;;;;;;4958974;28;20077;-81
2021/03/26 13:18:53;;;;;;;7.43;4.35;;;;;;;;;;4995206;28;20054;-81
2021/03/26 13:21:30;;;;;;;8.40;4.10;;;;;;;;;;5016327;28;20057;-88
2021/03/26 13:24:02;;;;;;;8.10;4.25;;;;;;;;;;4998284;28;20047;-79
2021/03/26 13:26:30;;;;;;;5.90;3.72;;;;;;;;;;5000931;28;20213;-80
2021/03/26 13:28:58;;;;;;;5.75;3.45;;;;;;;;;;5004277;28;20047;-80
2021/03/26 13:31:33;;;;;;;6.15;3.50;;;;;;;;;;4989456;28;20057;-80
2021/03/26 13:34:00;;;;;;;6.07;3.55;;;;;;;;;;5003136;28;20507;-81
2021/03/26 13:36:33;;;;;;;5.57;3.55;;;;;;;;;;4997215;28;20047;-83
2021/03/26 13:39:12;;;;;;;10.98;3.83;;;;;;;;;;4993079;28;20050;-80
2021/03/26 13:41:48;;;;;;;7.15;3.60;;;;;;;;;;4998012;28;20046;-84
2021/03/26 13:44:37;;;;;;;5.97;3.45;;;;;;;;;;4989948;28;20050;-82
2021/03/26 13:47:12;;;;;;;6.32;3.10;;;;;;;;;;5001898;28;20078;-81
2021/03/26 13:49:51;;;;;;;5.83;3.10;;;;;;;;;;5005349;28;20046;-80
2021/03/26 13:52:32;;;;;;;4.35;3.03;;;;;;;;;;4999775;28;20294;-80
2021/03/26 13:55:18;;;;;;;4.95;2.92;;;;;;;;;;4988662;28;20077;-81
2021/03/26 13:57:45;;;;;;;4.25;2.33;;;;;;;;;;4991424;28;20055;-80
2021/03/26 14:00:18;;;;;;;6.53;3.22;;;;;;;;;;5002990;28;20046;-80
2021/03/26 14:02:55;;;;;;;13.50;3.88;;;;;;;;;;5001523;28;20124;-81
2021/03/26 14:05:26;;;;;;;6.10;2.88;;;;;;;;;;4987786;28;20053;-81
2021/03/26 14:08:00;;;;;;;5.50;3.30;;;;;;;;;;5007593;28;20047;-82
2021/03/26 14:10:46;;;;;;;6.43;3.15;;;;;;;;;;4991981;28;20050;-82
2021/03/26 14:13:15;;;;;;;6.97;2.90;;;;;;;;;;4993958;28;20046;-83
2021/03/26 14:15:41;;;;;;;5.50;2.63;;;;;;;;;;4984085;28;20049;-81
2021/03/26 14:18:11;;;;;;;7.40;3.42;;;;;;;;;;4999289;28;20046;-80
2021/03/26 14:20:41;;;;;;;6.05;2.50;;;;;;;;;;5006906;28;20058;-81
2021/03/26 14:23:13;;;;;;;6.13;3.05;;;;;;;;;;4997321;28;20107;-81
2021/03/26 14:25:42;;;;;;;7.07;2.70;;;;;;;;;;4986511;28;20051;-81
2021/03/26 14:28:14;;;;;;;4.57;2.17;;;;;;;;;;4988287;28;20055;-81
2021/03/26 14:30:45;;;;;;;4.07;2.78;;;;;;;;;;5004578;28;20073;-78
2021/03/26 14:33:42;;;;;;;5.63;2.35;;;;;;;;;;5005824;28;20042;-80
2021/03/26 14:36:15;;;;;;;3.60;2.17;;;;;;;;;;4954591;28;20054;-80
2021/03/26 14:38:43;;;;;;;4.78;2.28;;;;;;;;;;4990967;28;20618;-79
2021/03/26 14:41:23;;;;;;;6.60;2.53;;;;;;;;;;4994415;28;20050;-80
2021/03/26 14:43:51;;;;;;;4.07;2.50;;;;;;;;;;5012545;28;20050;-80
2021/03/26 14:46:20;;;;;;;4.80;2.03;;;;;;;;;;4983534;28;20051;-80
2021/03/26 14:48:49;;;;;;;5.00;1.90;;;;;;;;;;4991145;28;20054;-80
2021/03/26 14:51:18;;;;;;;3.33;1.85;;;;;;;;;;4982284;28;20071;-80
2021/03/26 14:53:46;;;;;;;4.43;1.88;;;;;;;;;;4977097;28;20555;-80
2021/03/26 14:56:15;;;;;;;3.72;1.90;;;;;;;;;;4999756;28;20050;-80
2021/03/26 14:58:44;;;;;;;5.60;2.03;;;;;;;;;;4997498;28;20057;-81
2021/03/26 15:01:13;;;;;;;2.90;1.85;;;;;;;;;;5004734;28;20057;-80
2021/03/26 15:04:13;;;;;;;4.00;1.75;;;;;;;;;;5001597;28;20055;-80
2021/03/26 15:06:44;;;;;;;5.45;2.38;;;;;;;;;;4961684;28;20175;-81
2021/03/26 15:09:18;;;;;;;5.25;2.28;;;;;;;;;;5008426;28;20057;-80
2021/03/26 15:11:55;;;;;;;11.23;8.35;;;;;;;;;;4998532;28;20042;-80
2021/03/26 15:14:28;;;;;;;6.20;4.28;;;;;;;;;;5003942;28;20049;-83
2021/03/26 15:16:59;;;;;;;7.60;3.17;;;;;;;;;;4988075;28;20078;-81
2021/03/26 15:19:27;;;;;;;4.13;2.10;;;;;;;;;;4995849;28;20105;-80
2021/03/26 15:22:03;;;;;;;5.18;2.30;;;;;;;;;;4989100;28;20050;-81
2021/03/26 15:24:55;;;;;;;4.28;2.45;;;;;;;;;;4987614;28;20050;-87
2021/03/26 15:27:33;;;;;;;5.22;2.83;;;;;;;;;;4997849;28;20726;-79
2021/03/26 15:30:03;;;;;;;5.55;2.30;;;;;;;;;;5002107;28;20042;-80
2021/03/26 15:32:34;;;;;;;5.25;2.90;;;;;;;;;;4995168;28;20143;-80
2021/03/26 15:35:04;;;;;;;5.38;2.50;;;;;;;;;;4990794;28;20050;-81
2021/03/26 15:37:45;;;;;;;4.22;2.58;;;;;;;;;;4995299;28;20054;-81
2021/03/26 15:40:16;;;;;;;3.83;2.42;;;;;;;;;;4992213;28;20117;-81
2021/03/26 15:42:47;;;;;;;7.57;3.80;;;;;;;;;;4987266;28;20417;-82
2021/03/26 15:45:19;;;;;;;5.85;2.65;;;;;;;;;;4990568;28;20108;-81
2021/03/26 15:47:56;;;;;;;6.25;2.58;;;;;;;;;;4994852;28;20057;-80
2021/03/26 15:50:24;;;;;;;4.60;2.28;;;;;;;;;;4996071;28;20046;-79
2021/03/26 15:52:58;;;;;;;5.75;2.85;;;;;;;;;;4992895;28;20042;-80
2021/03/26 15:55:34;;;;;;;7.07;3.15;;;;;;;;;;4986594;28;20053;-81
2021/03/26 15:58:19;;;;;;;5.88;3.30;;;;;;;;;;5000388;28;20086;-80